Time;durP1;ratioP1;P1;durP2;ratioP2;P2;SDS_P1;SDS_P2;PMS_P1;PMS_P2;Temp;Humidity;BMP_temperature;BMP_pressure;BME280_temperature;BME280_humidity;BME280_pressure;Samples;Min_cycle;Max_cycle;Signal;HPM_P1;HPM_P2
2021/07/19 00:00:15;;;;;;;7.97;6.20;;;22.40;1.00;;;;;;4966897;28;20477;-82
2021/07/19 00:02:44;;;;;;;12.17;5.83;;;22.40;1.00;;;;;;4964478;28;20452;-81
2021/07/19 00:05:12;;;;;;;7.23;5.63;;;22.50;1.00;;;;;;4964469;28;20436;-81
2021/07/19 00:07:39;;;;;;;7.63;5.83;;;22.50;1.00;;;;;;4960993;28;20477;-82
2021/07/19 00:10:08;;;;;;;5.07;4.47;;;22.40;1.00;;;;;;4968937;28;21513;-80
2021/07/19 00:12:36;;;;;;;6.30;5.03;;;22.50;1.00;;;;;;4973312;28;21376;-80
2021/07/19 00:15:03;;;;;;;7.10;4.70;;;22.50;1.00;;;;;;4960696;28;20517;-85
2021/07/19 00:17:31;;;;;;;5.03;4.60;;;22.40;1.00;;;;;;4979377;28;20418;-80
2021/07/19 00:19:58;;;;;;;8.10;4.80;;;22.40;1.00;;;;;;4969901;28;20460;-81
2021/07/19 00:22:25;;;;;;;5.00;4.60;;;22.30;1.00;;;;;;4948040;28;20477;-80
2021/07/19 00:24:51;;;;;;;6.33;5.00;;;22.10;1.00;;;;;;4944153;28;20463;-82
2021/07/19 00:27:18;;;;;;;8.07;5.30;;;22.10;1.00;;;;;;4963867;28;20467;-81
2021/07/19 00:29:45;;;;;;;5.80;5.20;;;21.90;1.00;;;;;;4974241;28;20475;-84
2021/07/19 00:32:11;;;;;;;7.30;4.37;;;21.90;1.00;;;;;;4958778;28;20415;-85
2021/07/19 00:34:40;;;;;;;4.47;4.07;;;21.90;1.00;;;;;;4961660;28;21463;-80
2021/07/19 00:37:06;;;;;;;5.80;4.33;;;21.90;1.00;;;;;;4963380;28;20412;-80
2021/07/19 00:39:34;;;;;;;5.60;5.00;;;21.70;1.00;;;;;;4976992;28;20527;-80
2021/07/19 00:42:01;;;;;;;6.23;5.20;;;21.60;1.00;;;;;;4987523;28;20431;-83
2021/07/19 00:44:28;;;;;;;6.97;4.47;;;21.70;1.00;;;;;;5045651;23;20986;-83
2021/07/19 00:46:56;;;;;;;7.93;5.30;;;21.90;1.00;;;;;;4993423;28;20451;-83
2021/07/19 00:49:23;;;;;;;4.90;4.40;;;21.90;1.00;;;;;;5005821;28;20461;-84
2021/07/19 00:51:52;;;;;;;5.90;4.73;;;21.90;1.00;;;;;;4990176;28;21074;-83
2021/07/19 00:54:20;;;;;;;5.70;4.60;;;21.90;1.00;;;;;;4976963;28;20432;-83
2021/07/19 00:56:55;;;;;;;5.93;5.27;;;21.80;1.00;;;;;;4956040;28;20478;-82
2021/07/19 00:59:23;;;;;;;5.47;4.53;;;21.50;1.00;;;;;;4978108;28;20429;-84
2021/07/19 01:01:53;;;;;;;6.63;4.80;;;21.50;1.00;;;;;;4987842;28;20454;-84
2021/07/19 01:04:21;;;;;;;7.00;5.70;;;21.30;1.00;;;;;;4967872;28;20442;-83
2021/07/19 01:06:52;;;;;;;7.33;5.90;;;21.20;1.00;;;;;;4989412;28;20402;-84
2021/07/19 01:09:19;;;;;;;7.57;6.30;;;21.10;1.00;;;;;;4979994;28;20464;-82
2021/07/19 01:11:46;;;;;;;6.53;5.90;;;21.10;1.00;;;;;;4987524;28;20464;-82
2021/07/19 01:14:13;;;;;;;7.00;6.27;;;21.00;1.00;;;;;;4980067;28;20469;-83
2021/07/19 01:16:40;;;;;;;6.83;6.13;;;20.80;1.00;;;;;;4977695;28;20420;-82
2021/07/19 01:19:08;;;;;;;7.00;6.13;;;20.80;1.00;;;;;;4974706;28;20458;-83
2021/07/19 01:22:18;;;;;;;11.07;6.57;;;20.80;1.00;;;;;;4974999;28;20488;-82
2021/07/19 01:24:53;;;;;;;6.00;5.30;;;20.70;1.00;;;;;;4973581;28;20450;-82
2021/07/19 01:28:01;;;;;;;6.83;4.80;;;20.70;1.00;;;;;;4958046;28;20902;-82
2021/07/19 01:30:31;;;;;;;8.93;6.77;;;20.80;1.00;;;;;;4974745;28;20441;-82
2021/07/19 01:33:02;;;;;;;8.30;6.93;;;20.70;1.00;;;;;;4971541;28;20453;-82
2021/07/19 01:35:33;;;;;;;8.20;6.43;;;20.80;1.00;;;;;;4975901;28;20458;-82
2021/07/19 01:38:01;;;;;;;7.10;6.37;;;20.90;1.00;;;;;;4972883;28;21596;-82
2021/07/19 01:40:28;;;;;;;7.60;6.80;;;21.00;1.00;;;;;;4977045;28;20430;-83
2021/07/19 01:42:57;;;;;;;7.50;5.93;;;21.10;1.00;;;;;;4972010;28;20456;-82
2021/07/19 01:45:24;;;;;;;6.83;5.97;;;21.00;1.00;;;;;;4967524;28;20496;-82
2021/07/19 01:47:53;;;;;;;7.90;7.10;;;20.90;1.00;;;;;;4977258;28;20457;-82
2021/07/19 01:50:20;;;;;;;7.47;5.97;;;20.70;1.00;;;;;;4988822;28;20468;-82
2021/07/19 01:52:48;;;;;;;12.30;6.33;;;20.50;1.00;;;;;;4971255;28;20545;-82
2021/07/19 01:55:15;;;;;;;8.47;6.60;;;20.60;1.00;;;;;;4970201;28;20428;-81
2021/07/19 01:57:42;;;;;;;9.63;6.77;;;20.40;1.00;;;;;;4973815;28;21606;-82
2021/07/19 02:00:10;;;;;;;9.00;6.73;;;20.50;1.00;;;;;;4978611;28;20965;-82
2021/07/19 02:02:38;;;;;;;7.43;6.60;;;20.60;1.00;;;;;;4971073;28;20459;-82
2021/07/19 02:05:10;;;;;;;7.70;6.30;;;20.80;1.00;;;;;;4961631;28;20521;-82
2021/07/19 02:07:38;;;;;;;7.17;5.77;;;20.80;1.00;;;;;;4973196;28;20930;-83
2021/07/19 02:10:07;;;;;;;9.00;6.33;;;20.60;1.00;;;;;;4979837;28;20461;-82
2021/07/19 02:12:36;;;;;;;7.73;6.73;;;20.60;1.00;;;;;;4983189;28;20460;-82
2021/07/19 02:15:06;;;;;;;11.70;6.60;;;20.50;1.00;;;;;;4975191;28;20417;-81
2021/07/19 02:17:35;;;;;;;9.07;6.97;;;20.20;1.00;;;;;;4998499;28;20442;-82
2021/07/19 02:20:02;;;;;;;9.50;6.60;;;20.00;1.00;;;;;;4972327;28;20498;-82
2021/07/19 02:22:30;;;;;;;9.60;7.23;;;19.70;1.00;;;;;;4972388;28;20432;-82
2021/07/19 02:24:56;;;;;;;9.00;6.20;;;19.50;1.00;;;;;;4970569;28;20545;-82
2021/07/19 02:27:24;;;;;;;7.40;6.70;;;19.40;1.00;;;;;;4971841;28;20907;-82
2021/07/19 02:29:51;;;;;;;7.40;6.60;;;19.10;1.00;;;;;;4989552;28;20456;-81
2021/07/19 02:32:18;;;;;;;9.90;7.33;;;19.00;1.00;;;;;;4977162;28;21362;-82
2021/07/19 02:34:45;;;;;;;8.37;7.07;;;19.10;1.00;;;;;;4974835;28;20980;-81
2021/07/19 02:37:12;;;;;;;7.60;6.80;;;19.20;1.00;;;;;;4971822;28;20490;-81
2021/07/19 02:39:40;;;;;;;9.47;6.80;;;19.30;1.00;;;;;;4975476;28;20559;-82
2021/07/19 02:42:07;;;;;;;9.07;6.73;;;19.30;1.00;;;;;;4978755;28;20481;-82
2021/07/19 02:44:34;;;;;;;9.40;6.50;;;19.30;1.00;;;;;;4970121;28;20462;-82
2021/07/19 02:47:02;;;;;;;10.97;6.80;;;19.40;1.00;;;;;;4979758;28;20464;-81
2021/07/19 02:49:29;;;;;;;12.10;6.20;;;19.40;1.00;;;;;;4953439;28;20464;-82
2021/07/19 02:51:57;;;;;;;12.17;6.70;;;19.40;1.00;;;;;;4970284;28;20977;-82
2021/07/19 02:54:26;;;;;;;8.07;6.43;;;19.30;1.00;;;;;;4966527;28;21132;-82
2021/07/19 02:56:55;;;;;;;6.87;6.10;;;19.30;1.00;;;;;;4972800;28;20947;-82
2021/07/19 02:59:22;;;;;;;7.77;6.30;;;19.50;1.00;;;;;;4965665;28;20460;-82
2021/07/19 03:01:53;;;;;;;10.60;6.33;;;19.40;1.00;;;;;;4966719;28;20504;-82
2021/07/19 03:04:21;;;;;;;9.60;6.20;;;19.30;1.00;;;;;;4970444;28;20546;-82
2021/07/19 03:06:49;;;;;;;9.90;5.90;;;19.10;1.00;;;;;;4968247;28;20431;-82
2021/07/19 03:09:20;;;;;;;15.00;8.00;;;19.00;1.00;;;;;;4971835;28;20462;-82
2021/07/19 03:11:49;;;;;;;8.80;6.50;;;19.00;1.00;;;;;;4966609;28;20444;-82
2021/07/19 03:14:20;;;;;;;8.17;5.87;;;19.00;1.00;;;;;;4972317;28;20472;-82
2021/07/19 03:16:49;;;;;;;9.10;5.90;;;19.20;1.00;;;;;;4972108;28;20653;-82
2021/07/19 03:19:19;;;;;;;9.73;6.37;;;19.30;1.00;;;;;;4967974;28;20457;-82
2021/07/19 03:21:49;;;;;;;9.20;6.37;;;19.30;1.00;;;;;;4969881;28;20597;-82
2021/07/19 03:24:17;;;;;;;9.90;5.50;;;19.30;1.00;;;;;;4947439;28;20467;-82
2021/07/19 03:26:44;;;;;;;9.13;5.80;;;19.10;1.00;;;;;;4973871;28;20473;-82
2021/07/19 03:29:12;;;;;;;9.90;5.67;;;18.90;1.00;;;;;;4965706;28;20490;-82
2021/07/19 03:31:42;;;;;;;9.37;6.33;;;18.80;1.00;;;;;;4967785;28;20560;-82
2021/07/19 03:34:11;;;;;;;9.27;6.17;;;18.60;1.00;;;;;;4967386;28;20423;-82
2021/07/19 03:36:38;;;;;;;8.87;6.63;;;18.60;1.00;;;;;;4965762;28;20456;-82
2021/07/19 03:39:08;;;;;;;11.50;6.60;;;18.40;1.00;;;;;;4976647;28;20537;-82
2021/07/19 03:41:35;;;;;;;10.87;6.83;;;18.20;1.00;;;;;;4967916;28;20451;-82
2021/07/19 03:44:02;;;;;;;10.10;6.40;;;18.00;1.00;;;;;;4969645;28;21209;-81
2021/07/19 03:46:30;;;;;;;9.57;6.07;;;17.90;1.00;;;;;;4964767;28;20523;-82
2021/07/19 03:48:58;;;;;;;9.90;6.60;;;17.80;1.00;;;;;;4969779;28;20478;-82
2021/07/19 03:51:29;;;;;;;8.90;6.03;;;17.70;1.00;;;;;;4965765;28;20435;-82
2021/07/19 03:53:56;;;;;;;8.00;5.97;;;17.80;1.00;;;;;;4964389;28;20471;-82
2021/07/19 03:56:26;;;;;;;10.63;6.60;;;17.90;1.00;;;;;;4970607;28;20465;-82
2021/07/19 03:58:55;;;;;;;8.13;5.57;;;18.10;1.00;;;;;;4943898;28;20510;-82
2021/07/19 04:01:23;;;;;;;10.10;5.97;;;18.00;1.00;;;;;;4965713;28;20438;-82
2021/07/19 04:03:53;;;;;;;12.10;6.33;;;17.90;1.00;;;;;;4965223;28;20467;-81
2021/07/19 04:06:23;;;;;;;9.40;6.23;;;17.80;1.00;;;;;;4971633;28;20424;-82
2021/07/19 04:08:50;;;;;;;9.43;5.87;;;17.80;1.00;;;;;;4947283;28;21005;-82
2021/07/19 04:11:18;;;;;;;10.73;6.33;;;17.80;1.00;;;;;;4965405;28;21456;-82
2021/07/19 04:13:45;;;;;;;10.87;6.27;;;17.90;1.00;;;;;;4966305;28;20479;-82
2021/07/19 04:16:14;;;;;;;7.40;5.40;;;18.20;1.00;;;;;;4967070;28;20531;-81
2021/07/19 04:18:41;;;;;;;11.20;5.33;;;18.30;1.00;;;;;;4970699;28;20461;-82
2021/07/19 04:21:09;;;;;;;9.37;6.23;;;18.20;1.00;;;;;;4948839;28;20511;-82
2021/07/19 04:23:37;;;;;;;7.43;5.37;;;18.10;1.00;;;;;;4961598;28;20463;-82
2021/07/19 04:26:04;;;;;;;12.00;6.40;;;18.30;1.00;;;;;;4964690;28;20400;-83
2021/07/19 04:28:31;;;;;;;7.50;4.80;;;18.60;1.00;;;;;;4957466;28;20442;-82
2021/07/19 04:30:58;;;;;;;11.00;5.77;;;18.70;1.00;;;;;;4974754;28;20464;-81
2021/07/19 04:33:24;;;;;;;10.07;5.13;;;18.60;1.00;;;;;;4960797;28;20830;-82
2021/07/19 04:35:51;;;;;;;11.33;5.37;;;18.60;1.00;;;;;;4965048;28;20928;-83
2021/07/19 04:38:21;;;;;;;7.43;3.90;;;18.60;1.00;;;;;;4966361;28;20821;-80
2021/07/19 04:40:51;;;;;;;8.63;5.57;;;18.60;1.00;;;;;;4973586;28;20433;-81
2021/07/19 04:43:19;;;;;;;10.17;5.23;;;18.70;1.00;;;;;;4972058;28;20499;-82
2021/07/19 04:45:48;;;;;;;6.20;4.60;;;19.00;1.00;;;;;;4963083;28;22652;-81
2021/07/19 04:48:15;;;;;;;6.50;4.90;;;19.00;1.00;;;;;;4968747;28;20497;-81
2021/07/19 04:50:42;;;;;;;6.47;4.80;;;18.70;1.00;;;;;;4961459;28;20456;-81
2021/07/19 04:53:10;;;;;;;6.23;5.13;;;18.70;1.00;;;;;;4953636;28;21012;-82
2021/07/19 04:55:38;;;;;;;9.57;5.07;;;18.90;1.00;;;;;;4967945;28;20463;-81
2021/07/19 04:58:07;;;;;;;6.73;4.30;;;19.00;1.00;;;;;;4972358;28;20443;-81
2021/07/19 05:00:39;;;;;;;9.43;5.37;;;18.90;1.00;;;;;;4969654;28;20457;-81
2021/07/19 05:03:07;;;;;;;11.60;6.20;;;18.80;1.00;;;;;;4968278;28;20464;-81
2021/07/19 05:05:36;;;;;;;11.10;5.87;;;18.80;1.00;;;;;;4967530;28;20504;-82
2021/07/19 05:08:04;;;;;;;18.87;6.50;;;19.20;1.00;;;;;;4965940;28;20416;-82
2021/07/19 05:10:32;;;;;;;11.73;6.10;;;19.30;1.00;;;;;;4970596;28;20420;-83
2021/07/19 05:12:59;;;;;;;21.77;11.20;;;19.10;1.00;;;;;;4970669;28;20827;-82
2021/07/19 05:15:28;;;;;;;8.10;5.63;;;18.90;1.00;;;;;;4969720;28;20458;-83
2021/07/19 05:17:55;;;;;;;12.60;6.13;;;18.80;1.00;;;;;;4982338;28;20578;-82
2021/07/19 05:20:23;;;;;;;8.23;5.20;;;18.80;1.00;;;;;;4967521;28;20460;-80
2021/07/19 05:22:51;;;;;;;13.33;6.30;;;18.70;1.00;;;;;;4963453;28;20474;-78
2021/07/19 05:25:23;;;;;;;9.30;5.40;;;18.90;1.00;;;;;;4947842;28;20432;-79
2021/07/19 05:28:04;;;;;;;10.83;5.40;;;19.10;1.00;;;;;;4963120;28;21159;-80
2021/07/19 05:30:34;;;;;;;6.63;5.40;;;19.30;1.00;;;;;;4957418;28;20460;-80
2021/07/19 05:33:00;;;;;;;6.83;4.80;;;19.50;1.00;;;;;;4963183;28;21455;-79
2021/07/19 05:35:28;;;;;;;7.63;4.60;;;19.50;1.00;;;;;;4962737;28;20440;-80
2021/07/19 05:37:54;;;;;;;11.77;5.50;;;19.70;1.00;;;;;;4965387;28;20487;-80
2021/07/19 05:40:21;;;;;;;8.73;5.60;;;19.60;1.00;;;;;;4959931;28;20440;-78
2021/07/19 05:42:48;;;;;;;7.23;5.00;;;19.60;1.00;;;;;;4967504;28;20465;-80
2021/07/19 05:45:16;;;;;;;8.97;5.60;;;19.50;1.00;;;;;;4973007;28;23446;-80
2021/07/19 05:47:44;;;;;;;25.03;6.00;;;19.40;1.00;;;;;;4947310;28;20468;-71
2021/07/19 05:50:11;;;;;;;7.60;5.60;;;19.40;1.00;;;;;;4956001;28;21070;-69
2021/07/19 05:52:38;;;;;;;11.10;5.73;;;19.60;1.00;;;;;;4960778;28;21732;-73
2021/07/19 05:55:07;;;;;;;9.37;5.80;;;19.70;1.00;;;;;;4957296;28;20563;-68
2021/07/19 05:57:34;;;;;;;9.80;6.33;;;19.90;1.00;;;;;;4955622;28;20478;-70
2021/07/19 06:00:01;;;;;;;9.27;5.80;;;19.80;1.00;;;;;;4953024;28;20436;-68
2021/07/19 06:02:29;;;;;;;18.27;7.53;;;19.80;1.00;;;;;;4954701;28;20473;-69
2021/07/19 06:04:57;;;;;;;10.73;6.47;;;19.80;1.00;;;;;;4953597;28;20445;-71
2021/07/19 06:07:24;;;;;;;7.00;5.33;;;19.80;1.00;;;;;;4961249;28;21324;-70
2021/07/19 06:09:50;;;;;;;8.80;6.20;;;20.00;1.00;;;;;;4953100;28;20511;-71
2021/07/19 06:12:17;;;;;;;11.07;6.93;;;20.20;1.00;;;;;;4952913;28;20464;-69
2021/07/19 06:14:44;;;;;;;12.10;7.23;;;20.30;1.00;;;;;;4957037;28;20460;-69
2021/07/19 06:17:12;;;;;;;9.20;5.87;;;20.40;1.00;;;;;;4958635;28;20457;-69
2021/07/19 06:19:39;;;;;;;10.43;6.53;;;20.50;1.00;;;;;;4960745;28;20446;-67
2021/07/19 06:22:08;;;;;;;9.37;5.73;;;20.50;1.00;;;;;;4953029;28;20486;-71
2021/07/19 06:24:34;;;;;;;10.23;6.80;;;20.70;1.00;;;;;;4952679;28;21522;-70
2021/07/19 06:27:01;;;;;;;12.23;6.43;;;20.80;1.00;;;;;;4957847;28;20612;-69
2021/07/19 06:29:27;;;;;;;10.20;7.27;;;20.90;1.00;;;;;;4955667;28;20452;-71
2021/07/19 06:31:54;;;;;;;10.27;7.00;;;20.80;1.00;;;;;;4955852;28;20549;-70
2021/07/19 06:34:21;;;;;;;8.17;6.70;;;20.80;1.00;;;;;;4954461;28;20461;-70
2021/07/19 06:36:47;;;;;;;8.20;6.53;;;20.80;1.00;;;;;;4957087;28;20462;-70
2021/07/19 06:39:16;;;;;;;9.97;7.03;;;20.90;1.00;;;;;;4954552;28;20447;-72
2021/07/19 06:41:42;;;;;;;13.13;6.13;;;20.90;1.00;;;;;;4957292;28;20446;-70
2021/07/19 06:44:09;;;;;;;12.40;6.90;;;20.90;1.00;;;;;;4956555;28;20471;-70
2021/07/19 06:46:35;;;;;;;8.10;6.40;;;20.90;1.00;;;;;;4955093;28;20922;-71
2021/07/19 06:49:02;;;;;;;11.43;7.07;;;21.00;1.00;;;;;;4955750;28;20446;-69
2021/07/19 06:51:29;;;;;;;8.17;6.07;;;21.20;1.00;;;;;;4956035;28;20444;-69
2021/07/19 06:53:55;;;;;;;10.37;6.93;;;21.10;1.00;;;;;;4962053;28;20467;-77
2021/07/19 06:56:24;;;;;;;10.67;7.03;;;21.00;1.00;;;;;;4954941;28;20498;-78
2021/07/19 06:58:51;;;;;;;9.23;6.20;;;20.70;1.00;;;;;;4959619;28;21072;-78
2021/07/19 07:01:17;;;;;;;10.87;8.57;;;20.20;1.00;;;;;;4946900;28;20951;-78
2021/07/19 07:03:44;;;;;;;10.27;6.90;;;19.90;1.00;;;;;;4958649;28;20487;-79
2021/07/19 07:06:11;;;;;;;12.67;7.73;;;19.70;1.00;;;;;;4948378;28;21002;-77
2021/07/19 07:08:37;;;;;;;10.87;7.27;;;19.70;1.00;;;;;;4957740;28;20475;-77
2021/07/19 07:11:04;;;;;;;8.40;6.23;;;19.70;1.00;;;;;;4957924;28;20475;-78
2021/07/19 07:13:32;;;;;;;8.10;6.37;;;19.70;1.00;;;;;;4963411;28;20444;-77
2021/07/19 07:15:59;;;;;;;9.63;7.27;;;19.60;1.00;;;;;;4962703;28;20452;-80
2021/07/19 07:18:25;;;;;;;10.63;7.23;;;19.80;1.00;;;;;;4963358;28;20445;-80
2021/07/19 07:20:52;;;;;;;13.07;8.20;;;19.90;1.00;;;;;;4965694;28;21317;-78
2021/07/19 07:23:18;;;;;;;8.20;7.10;;;19.80;1.00;;;;;;4960511;28;20467;-78
2021/07/19 07:25:47;;;;;;;11.80;7.83;;;20.00;1.00;;;;;;4961585;28;21040;-79
2021/07/19 07:28:13;;;;;;;12.10;6.90;;;20.20;1.00;;;;;;4962270;28;20847;-79
2021/07/19 07:30:41;;;;;;;9.60;7.50;;;20.40;1.00;;;;;;4957059;28;20568;-78
2021/07/19 07:33:09;;;;;;;10.60;8.17;;;20.40;1.00;;;;;;4968812;28;20453;-79
2021/07/19 07:35:40;;;;;;;11.37;7.07;;;20.50;1.00;;;;;;4963926;28;20468;-78
2021/07/19 07:38:07;;;;;;;10.17;7.30;;;20.60;1.00;;;;;;4965155;28;20437;-79
2021/07/19 07:40:34;;;;;;;9.70;6.57;;;20.70;1.00;;;;;;4962849;28;20445;-79
2021/07/19 07:43:00;;;;;;;11.17;7.73;;;20.70;1.00;;;;;;4957638;28;20552;-79
2021/07/19 07:45:27;;;;;;;12.00;6.43;;;20.70;1.00;;;;;;4966748;28;20925;-80
2021/07/19 07:47:55;;;;;;;11.20;9.07;;;20.80;1.00;;;;;;4965711;28;20958;-79
2021/07/19 07:50:22;;;;;;;13.10;7.40;;;20.90;1.00;;;;;;4952352;28;20467;-78
2021/07/19 07:52:48;;;;;;;12.93;6.67;;;21.20;1.00;;;;;;4971411;28;20450;-80
2021/07/19 07:55:15;;;;;;;7.77;6.20;;;21.20;1.00;;;;;;4962829;28;21275;-80
2021/07/19 07:57:42;;;;;;;8.83;6.70;;;21.20;1.00;;;;;;4974179;28;20453;-79
2021/07/19 08:00:13;;;;;;;9.50;7.47;;;21.10;1.00;;;;;;4942288;28;20845;-79
2021/07/19 08:02:39;;;;;;;7.73;6.60;;;21.00;1.00;;;;;;4960598;28;20459;-80
2021/07/19 08:05:09;;;;;;;8.90;7.40;;;21.10;1.00;;;;;;4963024;28;20453;-80
2021/07/19 08:07:36;;;;;;;11.70;8.33;;;21.30;1.00;;;;;;4960627;28;20480;-79
2021/07/19 08:10:04;;;;;;;9.83;6.90;;;21.50;1.00;;;;;;4958085;28;20453;-80
2021/07/19 08:12:31;;;;;;;7.70;6.90;;;21.60;1.00;;;;;;4958248;28;21260;-80
2021/07/19 08:14:58;;;;;;;10.90;7.77;;;21.60;1.00;;;;;;4959447;28;22928;-80
2021/07/19 08:17:25;;;;;;;10.43;7.50;;;21.70;1.00;;;;;;4955640;28;20471;-81
2021/07/19 08:19:56;;;;;;;8.70;7.57;;;21.90;1.00;;;;;;4963488;28;20491;-80
2021/07/19 08:22:24;;;;;;;9.47;6.33;;;22.10;1.00;;;;;;4937360;28;20458;-80
2021/07/19 08:24:50;;;;;;;8.63;6.60;;;22.20;1.00;;;;;;4956112;28;20486;-80
2021/07/19 08:27:17;;;;;;;7.50;6.67;;;22.30;1.00;;;;;;4944429;28;20444;-80
2021/07/19 08:29:44;;;;;;;9.60;8.17;;;22.50;1.00;;;;;;4957712;28;20447;-80
2021/07/19 08:32:11;;;;;;;9.23;7.40;;;22.50;1.00;;;;;;4964720;28;20461;-79
2021/07/19 08:34:37;;;;;;;10.17;6.67;;;22.60;1.00;;;;;;4958042;28;20478;-80
2021/07/19 08:37:04;;;;;;;13.50;7.80;;;22.60;1.00;;;;;;4961696;28;20466;-79
2021/07/19 08:39:32;;;;;;;9.43;6.70;;;22.60;1.00;;;;;;4941846;28;20460;-80
2021/07/19 08:41:59;;;;;;;7.83;7.00;;;22.40;1.00;;;;;;4959752;28;20444;-81
2021/07/19 08:44:28;;;;;;;9.13;6.73;;;22.30;1.00;;;;;;4967924;28;20563;-80
2021/07/19 08:46:55;;;;;;;8.13;6.10;;;22.20;1.00;;;;;;4956606;28;20584;-79
2021/07/19 08:49:21;;;;;;;8.43;7.40;;;22.30;1.00;;;;;;4963257;28;20443;-80
2021/07/19 08:51:49;;;;;;;9.40;6.87;;;22.30;1.00;;;;;;4960974;28;20471;-78
2021/07/19 08:54:16;;;;;;;10.70;7.60;;;22.30;1.00;;;;;;4964136;28;20443;-80
2021/07/19 08:56:46;;;;;;;8.83;7.30;;;22.50;1.00;;;;;;4963533;28;20462;-79
2021/07/19 08:59:17;;;;;;;12.10;7.10;;;22.50;1.00;;;;;;4961268;28;20439;-79
2021/07/19 09:01:46;;;;;;;7.87;7.00;;;22.20;1.00;;;;;;4963511;28;20459;-78
2021/07/19 09:04:18;;;;;;;8.23;6.67;;;21.90;1.00;;;;;;4966480;28;20459;-78
2021/07/19 09:06:45;;;;;;;9.60;8.13;;;21.80;1.00;;;;;;4978890;28;20444;-81
2021/07/19 09:09:12;;;;;;;7.77;6.80;;;21.90;1.00;;;;;;4969982;28;20455;-80
2021/07/19 09:11:50;;;;;;;9.90;7.53;;;22.00;1.00;;;;;;4967162;28;20421;-79
2021/07/19 09:14:16;;;;;;;11.47;7.63;;;22.10;1.00;;;;;;4940441;28;20481;-81
2021/07/19 09:16:45;;;;;;;8.23;6.50;;;22.40;1.00;;;;;;4944061;28;20468;-79
2021/07/19 09:19:13;;;;;;;7.23;6.53;;;22.80;1.00;;;;;;4958747;28;20455;-78
2021/07/19 09:21:42;;;;;;;8.10;6.93;;;23.00;1.00;;;;;;4959314;28;20572;-79
2021/07/19 09:24:10;;;;;;;9.30;6.93;;;23.20;1.00;;;;;;4968355;28;20464;-79
2021/07/19 09:26:40;;;;;;;11.70;6.30;;;23.30;1.00;;;;;;4964427;28;21228;-80
2021/07/19 09:29:11;;;;;;;9.33;6.40;;;23.40;1.00;;;;;;4959264;28;20459;-79
2021/07/19 09:31:41;;;;;;;8.00;6.00;;;23.00;1.00;;;;;;4960107;28;20544;-78
2021/07/19 09:34:13;;;;;;;8.33;6.00;;;22.70;1.00;;;;;;4967468;28;21009;-79
2021/07/19 09:36:53;;;;;;;8.07;6.30;;;22.30;1.00;;;;;;4968301;28;20438;-80
2021/07/19 09:39:20;;;;;;;8.90;6.23;;;22.00;1.00;;;;;;4961022;28;20468;-80
2021/07/19 09:41:47;;;;;;;8.00;6.33;;;21.90;1.00;;;;;;4968013;28;21186;-80
2021/07/19 09:44:15;;;;;;;6.70;5.67;;;21.80;1.00;;;;;;4966510;28;20459;-80
2021/07/19 09:46:42;;;;;;;8.13;6.50;;;22.00;1.00;;;;;;4964745;28;20460;-79
2021/07/19 09:49:09;;;;;;;7.90;6.20;;;22.30;1.00;;;;;;4961832;28;20764;-80
2021/07/19 09:51:37;;;;;;;7.77;7.00;;;22.60;1.00;;;;;;4967903;28;20455;-79
2021/07/19 09:54:10;;;;;;;8.70;6.47;;;22.60;1.00;;;;;;4967431;28;20511;-78
2021/07/19 09:56:37;;;;;;;8.90;6.63;;;22.40;1.00;;;;;;4967645;28;20444;-78
2021/07/19 09:59:09;;;;;;;8.17;6.27;;;22.10;1.00;;;;;;4979242;28;23642;-78
2021/07/19 10:01:41;;;;;;;9.40;6.37;;;22.10;1.00;;;;;;4965742;28;20482;-79
2021/07/19 10:04:10;;;;;;;7.30;6.47;;;22.10;1.00;;;;;;4963709;28;20467;-78
2021/07/19 10:06:38;;;;;;;6.50;5.50;;;22.10;1.00;;;;;;4961182;28;20489;-80
2021/07/19 10:09:07;;;;;;;7.37;5.70;;;22.40;1.00;;;;;;4966608;28;20445;-80
2021/07/19 10:11:37;;;;;;;7.23;6.00;;;22.80;1.00;;;;;;4964203;28;20479;-79
2021/07/19 10:14:05;;;;;;;8.90;5.47;;;23.00;1.00;;;;;;4959478;28;20530;-79
2021/07/19 10:16:33;;;;;;;8.20;5.30;;;23.00;1.00;;;;;;4965200;28;20504;-80
2021/07/19 10:19:02;;;;;;;7.73;5.90;;;23.00;1.00;;;;;;4960421;28;20544;-81
2021/07/19 10:21:32;;;;;;;8.70;6.17;;;22.90;1.00;;;;;;4962486;28;20517;-81
2021/07/19 10:24:00;;;;;;;8.53;6.83;;;22.70;1.00;;;;;;4960092;28;20481;-80
2021/07/19 10:26:28;;;;;;;7.70;5.43;;;22.40;1.00;;;;;;4957887;28;21024;-80
2021/07/19 10:28:55;;;;;;;9.40;6.00;;;22.00;1.00;;;;;;4960524;28;20420;-80
2021/07/19 10:31:22;;;;;;;7.60;5.93;;;21.80;1.00;;;;;;4959439;28;20455;-79
2021/07/19 10:33:50;;;;;;;8.00;6.70;;;21.60;1.00;;;;;;4966142;28;20524;-80
2021/07/19 10:36:25;;;;;;;10.40;6.30;;;21.60;1.00;;;;;;4960671;28;20484;-80
2021/07/19 10:38:55;;;;;;;7.17;6.33;;;21.50;1.00;;;;;;4971873;28;20466;-80
2021/07/19 10:41:24;;;;;;;7.27;5.30;;;21.50;1.00;;;;;;4963079;28;21249;-79
2021/07/19 10:44:03;;;;;;;8.40;5.80;;;21.50;1.00;;;;;;4963261;28;20531;-78
2021/07/19 10:46:30;;;;;;;10.83;7.00;;;21.50;1.00;;;;;;4975252;28;20419;-80
2021/07/19 10:49:08;;;;;;;8.10;6.60;;;21.60;1.00;;;;;;4965349;28;20520;-80
2021/07/19 10:51:46;;;;;;;9.93;6.20;;;21.80;1.00;;;;;;4968056;28;20463;-80
2021/07/19 10:54:24;;;;;;;6.70;5.80;;;22.10;1.00;;;;;;4958725;28;20460;-80
2021/07/19 10:56:55;;;;;;;9.07;6.20;;;22.20;1.00;;;;;;4970209;28;20460;-79
2021/07/19 10:59:27;;;;;;;10.20;6.60;;;22.40;1.00;;;;;;4942898;28;20483;-79
2021/07/19 11:01:55;;;;;;;16.03;8.00;;;22.50;1.00;;;;;;4961967;28;20898;-80
2021/07/19 11:04:23;;;;;;;7.00;5.60;;;22.60;1.00;;;;;;4940393;28;20497;-80
2021/07/19 11:06:57;;;;;;;7.37;5.90;;;22.90;1.00;;;;;;4964574;28;20448;-79
2021/07/19 11:09:35;;;;;;;6.57;4.97;;;23.10;1.00;;;;;;4963078;28;20460;-78
2021/07/19 11:12:12;;;;;;;7.37;5.10;;;23.30;1.00;;;;;;4960056;28;20440;-80
2021/07/19 11:14:45;;;;;;;7.10;5.73;;;23.40;1.00;;;;;;4973897;28;20441;-79
2021/07/19 11:17:13;;;;;;;5.40;4.90;;;23.30;1.00;;;;;;4969297;28;21376;-79
2021/07/19 11:19:41;;;;;;;5.37;4.87;;;23.40;1.00;;;;;;4962344;28;20457;-79
2021/07/19 11:22:11;;;;;;;6.80;5.70;;;23.30;1.00;;;;;;4956432;28;20509;-79
2021/07/19 11:24:42;;;;;;;6.50;4.80;;;23.20;1.00;;;;;;4958104;28;20441;-79
2021/07/19 11:27:10;;;;;;;6.30;4.70;;;23.20;1.00;;;;;;4939800;28;20476;-80
2021/07/19 11:29:38;;;;;;;7.57;5.20;;;23.20;1.00;;;;;;4959872;28;20476;-80
2021/07/19 11:32:07;;;;;;;6.70;4.47;;;23.10;1.00;;;;;;4959612;28;20464;-79
2021/07/19 11:34:35;;;;;;;5.80;4.93;;;22.90;1.00;;;;;;4960529;28;21476;-80
2021/07/19 11:37:03;;;;;;;8.60;4.33;;;22.80;1.00;;;;;;4960429;28;20478;-80
2021/07/19 11:39:42;;;;;;;4.47;3.30;;;22.80;1.00;;;;;;4962024;28;20468;-81
2021/07/19 11:42:10;;;;;;;5.90;4.17;;;22.60;1.00;;;;;;4960451;28;22600;-79
2021/07/19 11:44:38;;;;;;;10.10;5.30;;;22.50;1.00;;;;;;4958720;28;20486;-78
2021/07/19 11:47:06;;;;;;;5.57;4.53;;;22.60;1.00;;;;;;4958643;28;20466;-78
2021/07/19 11:49:33;;;;;;;5.40;3.93;;;22.80;1.00;;;;;;4947223;28;21195;-78
2021/07/19 11:52:00;;;;;;;4.50;3.90;;;23.00;1.00;;;;;;4940746;28;20493;-79
2021/07/19 11:54:27;;;;;;;4.50;3.80;;;23.20;1.00;;;;;;4957325;28;20466;-81
2021/07/19 11:56:56;;;;;;;6.83;4.30;;;23.30;1.00;;;;;;4958371;28;20545;-79
2021/07/19 11:59:25;;;;;;;3.60;3.30;;;23.50;1.00;;;;;;4960011;28;21008;-79
2021/07/19 12:02:10;;;;;;;4.10;3.40;;;23.70;1.00;;;;;;4962827;28;20426;-79
2021/07/19 12:04:38;;;;;;;4.43;3.50;;;24.30;1.00;;;;;;4977428;28;20604;-81
2021/07/19 12:07:05;;;;;;;4.93;3.50;;;24.90;1.00;;;;;;4964622;28;20456;-80
2021/07/19 12:09:32;;;;;;;6.00;4.33;;;25.30;1.00;;;;;;4959844;28;21240;-81
2021/07/19 12:12:02;;;;;;;4.23;2.70;;;26.50;1.00;;;;;;4963346;28;20447;-80
2021/07/19 12:14:30;;;;;;;6.80;2.93;;;28.40;1.00;;;;;;4956496;28;21439;-80
2021/07/19 12:16:57;;;;;;;4.57;3.00;;;29.00;1.00;;;;;;4958804;28;20697;-81
2021/07/19 12:19:24;;;;;;;4.47;4.07;;;29.40;1.00;;;;;;4959835;28;20475;-79
2021/07/19 12:21:52;;;;;;;5.47;3.90;;;29.10;1.00;;;;;;4971968;28;20434;-79
2021/07/19 12:24:20;;;;;;;7.20;6.10;;;28.40;1.00;;;;;;4969996;28;20473;-80
2021/07/19 12:26:49;;;;;;;7.53;5.40;;;27.60;1.00;;;;;;4960307;28;20928;-79
2021/07/19 12:29:18;;;;;;;4.27;3.80;;;27.00;1.00;;;;;;4966281;28;20477;-81
2021/07/19 12:31:52;;;;;;;5.40;4.53;;;26.30;1.00;;;;;;4962673;28;20542;-79
2021/07/19 12:34:21;;;;;;;6.20;4.53;;;25.50;1.00;;;;;;4963100;28;21050;-78
2021/07/19 12:36:51;;;;;;;7.07;4.50;;;24.90;1.00;;;;;;4960412;28;20559;-80
2021/07/19 12:39:21;;;;;;;12.07;4.33;;;24.50;1.00;;;;;;4964225;28;20620;-79
2021/07/19 12:41:49;;;;;;;5.57;4.40;;;24.30;1.00;;;;;;4963502;28;20723;-80
2021/07/19 12:44:20;;;;;;;9.23;5.20;;;24.00;1.00;;;;;;4962042;28;21307;-79
2021/07/19 12:46:49;;;;;;;6.00;4.33;;;23.90;1.00;;;;;;4962931;28;21256;-79
2021/07/19 12:49:26;;;;;;;6.27;4.70;;;23.60;1.00;;;;;;4943927;28;20573;-80
2021/07/19 12:51:57;;;;;;;9.13;5.23;;;23.40;1.00;;;;;;4962283;28;20456;-79
2021/07/19 12:54:24;;;;;;;6.60;4.90;;;23.30;1.00;;;;;;4962339;28;20459;-80
2021/07/19 12:56:51;;;;;;;7.20;5.43;;;23.30;1.00;;;;;;4970025;28;20438;-80
2021/07/19 12:59:19;;;;;;;5.87;4.57;;;23.40;1.00;;;;;;4961474;28;20437;-79
2021/07/19 13:01:49;;;;;;;5.80;4.87;;;23.30;1.00;;;;;;4961454;28;20448;-79